Time;durP1;ratioP1;P1;durP2;ratioP2;P2;SDS_P1;SDS_P2;PMS_P1;PMS_P2;Temp;Humidity;BMP_temperature;BMP_pressure;BME280_temperature;BME280_humidity;BME280_pressure;Samples;Min_cycle;Max_cycle;Signal;HPM_P1;HPM_P2
2022/05/25 00:02:13;;;;;;;1.30;1.20;;;14.00;99.90;;;;;;4913604;29;20044;-76
2022/05/25 00:04:39;;;;;;;1.65;1.55;;;14.00;99.90;;;;;;4932889;29;20498;-76
2022/05/25 00:07:05;;;;;;;1.48;1.30;;;14.00;99.90;;;;;;4932839;29;20128;-77
2022/05/25 00:09:30;;;;;;;1.50;1.40;;;13.80;99.90;;;;;;4934600;29;20027;-76
2022/05/25 00:11:56;;;;;;;2.05;1.60;;;13.60;99.90;;;;;;4933037;29;20570;-76
2022/05/25 00:14:22;;;;;;;2.83;1.70;;;13.60;99.90;;;;;;4931214;29;20051;-77
2022/05/25 00:16:48;;;;;;;2.15;1.55;;;13.70;99.90;;;;;;4932395;29;20386;-76
2022/05/25 00:21:58;;;;;;;1.45;1.35;;;13.80;99.90;;;;;;4929777;29;20090;-76
2022/05/25 00:24:24;;;;;;;2.08;1.50;;;13.80;99.90;;;;;;4934854;29;20040;-77
2022/05/25 00:26:50;;;;;;;2.15;1.50;;;13.90;99.90;;;;;;4933369;29;20090;-77
2022/05/25 00:29:15;;;;;;;2.90;1.50;;;13.90;99.90;;;;;;4935905;29;20115;-76
2022/05/25 00:31:41;;;;;;;2.45;1.52;;;13.70;99.90;;;;;;4912858;29;20044;-77
2022/05/25 00:34:07;;;;;;;1.60;1.50;;;13.50;99.90;;;;;;4933507;29;20028;-76
2022/05/25 00:36:33;;;;;;;1.85;1.70;;;13.50;99.90;;;;;;4931610;29;20043;-76
2022/05/25 00:38:59;;;;;;;1.58;1.48;;;13.50;99.90;;;;;;4936317;29;20028;-76
2022/05/25 00:41:30;;;;;;;1.60;1.50;;;13.50;99.90;;;;;;4932418;29;20043;-76
2022/05/25 00:43:57;;;;;;;2.05;1.50;;;13.60;99.90;;;;;;4930974;29;20055;-76
2022/05/25 00:46:24;;;;;;;2.05;1.55;;;13.70;99.90;;;;;;4929738;29;20447;-76
2022/05/25 00:48:54;;;;;;;2.42;1.67;;;13.70;99.90;;;;;;4934448;29;20043;-76
2022/05/25 00:51:34;;;;;;;1.77;1.67;;;13.70;99.90;;;;;;4934520;29;20039;-76
2022/05/25 00:54:06;;;;;;;2.13;2.00;;;13.70;99.90;;;;;;4935389;29;20031;-76
2022/05/25 00:56:34;;;;;;;2.38;1.90;;;13.70;99.90;;;;;;4932842;29;20032;-76
2022/05/25 00:59:04;;;;;;;1.90;1.80;;;13.70;99.90;;;;;;4931676;29;20047;-76
2022/05/25 01:01:31;;;;;;;2.45;1.48;;;13.70;99.90;;;;;;4912273;29;20086;-76
2022/05/25 01:03:56;;;;;;;6.60;2.40;;;13.60;99.90;;;;;;4931370;29;20042;-76
2022/05/25 01:06:51;;;;;;;1.67;1.55;;;13.70;99.90;;;;;;4933501;29;20079;-76
2022/05/25 01:09:34;;;;;;;1.98;1.88;;;13.70;99.90;;;;;;4931969;29;20047;-76
2022/05/25 01:12:15;;;;;;;1.80;1.70;;;13.80;99.90;;;;;;4933888;29;20051;-76
2022/05/25 01:14:40;;;;;;;1.63;1.52;;;13.80;99.90;;;;;;4928327;29;20114;-76
2022/05/25 01:17:10;;;;;;;3.67;1.88;;;13.70;99.90;;;;;;4929614;29;20127;-76
2022/05/25 01:19:41;;;;;;;2.75;1.60;;;13.70;99.90;;;;;;4935301;29;20040;-76
2022/05/25 01:22:25;;;;;;;2.67;1.67;;;13.70;99.90;;;;;;4931248;29;20039;-76
2022/05/25 01:25:18;;;;;;;1.63;1.52;;;13.80;99.90;;;;;;4927594;29;20132;-76
2022/05/25 01:27:45;;;;;;;1.65;1.55;;;13.80;99.90;;;;;;4933697;29;20496;-76
2022/05/25 01:30:18;;;;;;;4.22;1.70;;;13.80;99.90;;;;;;4932604;29;20039;-77
2022/05/25 01:33:19;;;;;;;4.57;2.10;;;13.80;99.90;;;;;;4935514;29;20581;-77
2022/05/25 01:36:21;;;;;;;3.45;2.00;;;13.90;99.90;;;;;;4917577;29;20098;-77
2022/05/25 01:39:04;;;;;;;1.80;1.70;;;13.90;99.90;;;;;;4945610;29;20031;-77
2022/05/25 01:41:35;;;;;;;2.22;1.98;;;13.90;99.90;;;;;;4936097;29;20042;-77
2022/05/25 01:44:26;;;;;;;5.80;2.30;;;13.90;99.90;;;;;;4936737;29;20411;-77
2022/05/25 01:47:03;;;;;;;2.75;1.80;;;13.90;99.90;;;;;;4934544;29;20058;-76
2022/05/25 01:49:40;;;;;;;1.80;1.70;;;13.90;99.90;;;;;;4937494;29;20091;-77
2022/05/25 01:52:10;;;;;;;2.33;2.07;;;13.90;99.90;;;;;;4935401;29;20467;-77
2022/05/25 01:54:41;;;;;;;2.25;2.10;;;13.90;99.90;;;;;;4936413;29;20042;-77
2022/05/25 01:57:11;;;;;;;1.80;1.70;;;13.90;99.90;;;;;;4934915;29;20031;-77
2022/05/25 01:59:36;;;;;;;2.45;1.75;;;13.90;99.90;;;;;;4936419;29;20381;-77
2022/05/25 02:05:01;;;;;;;1.85;1.75;;;13.90;99.90;;;;;;4917940;29;20478;-77
2022/05/25 02:07:45;;;;;;;1.90;1.80;;;13.80;99.90;;;;;;4935580;29;20052;-76
2022/05/25 02:11:01;;;;;;;2.13;1.92;;;13.80;99.90;;;;;;4935029;29;20035;-78
2022/05/25 02:14:04;;;;;;;2.80;1.90;;;13.90;99.90;;;;;;4837450;29;20085;-76
2022/05/25 02:16:47;;;;;;;4.43;2.10;;;13.80;99.90;;;;;;4817348;29;20064;-76
2022/05/25 02:19:13;;;;;;;3.03;1.70;;;13.70;99.90;;;;;;4916731;29;20636;-76
2022/05/25 02:21:48;;;;;;;2.70;1.88;;;13.60;99.90;;;;;;4937098;29;20118;-76
2022/05/25 02:24:35;;;;;;;3.45;2.10;;;13.70;99.90;;;;;;4936291;29;20383;-76
2022/05/25 02:27:15;;;;;;;2.53;2.03;;;13.60;99.90;;;;;;4941095;29;20036;-76
2022/05/25 02:29:46;;;;;;;5.63;2.35;;;13.60;99.90;;;;;;4934284;29;20035;-76
2022/05/25 02:32:18;;;;;;;2.85;2.28;;;13.60;99.90;;;;;;4934208;29;20123;-77
2022/05/25 02:34:49;;;;;;;2.05;1.90;;;13.60;99.90;;;;;;4937154;29;20039;-77
2022/05/25 02:37:18;;;;;;;2.40;2.20;;;13.60;99.90;;;;;;4937640;29;20040;-77
2022/05/25 02:39:44;;;;;;;4.20;2.22;;;13.60;99.90;;;;;;4937899;29;20423;-76
2022/05/25 02:42:15;;;;;;;2.95;2.50;;;13.60;99.90;;;;;;4939301;29;20032;-77
2022/05/25 02:44:42;;;;;;;2.85;2.42;;;13.60;99.90;;;;;;4932805;29;20032;-76
2022/05/25 02:47:08;;;;;;;3.53;2.85;;;13.70;99.90;;;;;;4936581;29;20044;-77
2022/05/25 02:49:34;;;;;;;3.50;3.03;;;13.60;99.90;;;;;;4935966;29;20058;-76
2022/05/25 02:52:00;;;;;;;3.33;2.80;;;13.70;99.90;;;;;;4931961;29;20160;-76
2022/05/25 02:54:26;;;;;;;3.20;2.90;;;13.70;99.90;;;;;;4935047;29;20175;-76
2022/05/25 02:56:52;;;;;;;3.00;2.70;;;13.60;99.90;;;;;;4936544;29;20040;-76
2022/05/25 02:59:17;;;;;;;3.03;2.45;;;13.70;99.90;;;;;;4933147;29;20095;-76
2022/05/25 03:01:43;;;;;;;3.17;2.80;;;13.60;99.90;;;;;;4933498;29;20050;-76
2022/05/25 03:04:09;;;;;;;4.25;3.15;;;13.60;99.90;;;;;;4934970;29;20506;-76
2022/05/25 03:06:35;;;;;;;3.65;3.13;;;13.70;99.90;;;;;;4934339;29;20040;-76
2022/05/25 03:09:01;;;;;;;6.97;2.90;;;13.70;99.90;;;;;;4932544;29;20073;-77
2022/05/25 03:11:26;;;;;;;5.55;3.10;;;13.60;99.90;;;;;;4933372;29;20136;-76
2022/05/25 03:13:52;;;;;;;4.50;3.05;;;13.60;99.90;;;;;;4932208;29;20035;-76
2022/05/25 03:16:19;;;;;;;4.38;2.80;;;13.60;99.90;;;;;;4932300;29;20120;-76
2022/05/25 03:18:46;;;;;;;3.20;2.83;;;13.60;99.90;;;;;;4931271;29;20044;-76
2022/05/25 03:21:12;;;;;;;4.35;3.17;;;13.60;99.90;;;;;;4933253;29;20027;-77
2022/05/25 03:23:38;;;;;;;6.07;3.28;;;13.50;99.90;;;;;;4935161;29;20364;-76
2022/05/25 03:26:04;;;;;;;4.13;3.25;;;13.50;99.90;;;;;;4936261;29;20122;-76
2022/05/25 03:28:30;;;;;;;5.78;3.10;;;13.50;99.90;;;;;;4931018;29;20254;-76
2022/05/25 03:30:56;;;;;;;4.00;3.30;;;13.40;99.90;;;;;;4934820;29;20126;-76
2022/05/25 03:33:21;;;;;;;3.83;3.25;;;13.40;99.90;;;;;;4929055;29;20111;-76
2022/05/25 03:35:47;;;;;;;3.75;3.30;;;13.50;99.90;;;;;;4931940;29;20506;-76
2022/05/25 03:38:13;;;;;;;6.05;3.40;;;13.50;99.90;;;;;;4929308;29;20057;-76
2022/05/25 03:40:39;;;;;;;3.92;3.25;;;13.50;99.90;;;;;;4931256;29;20521;-77
2022/05/25 03:43:07;;;;;;;3.97;3.58;;;13.50;99.90;;;;;;4916387;29;20066;-76
2022/05/25 03:45:33;;;;;;;5.90;3.47;;;13.50;99.90;;;;;;4928874;29;20035;-77
2022/05/25 03:47:58;;;;;;;4.55;3.60;;;13.40;99.90;;;;;;4930391;29;20259;-76
2022/05/25 03:50:24;;;;;;;4.03;3.63;;;13.40;99.90;;;;;;4931126;29;20032;-76
2022/05/25 03:52:49;;;;;;;5.22;3.78;;;13.50;99.90;;;;;;4929470;29;20118;-76
2022/05/25 03:55:15;;;;;;;6.38;3.85;;;13.40;99.90;;;;;;4932115;29;20430;-76
2022/05/25 03:57:41;;;;;;;4.07;3.50;;;13.50;99.90;;;;;;4931701;29;20044;-76
2022/05/25 04:00:08;;;;;;;4.40;3.55;;;13.40;99.90;;;;;;4932682;29;20043;-77
2022/05/25 04:02:34;;;;;;;5.32;4.05;;;13.40;99.90;;;;;;4933633;29;20111;-77
2022/05/25 04:05:08;;;;;;;4.82;3.58;;;13.30;99.90;;;;;;4935345;29;20066;-78
2022/05/25 04:07:39;;;;;;;3.97;3.30;;;13.40;99.90;;;;;;4937492;29;20075;-78
2022/05/25 04:10:06;;;;;;;3.15;2.80;;;13.20;99.90;;;;;;4934080;29;20044;-77
2022/05/25 04:12:57;;;;;;;6.50;3.03;;;13.20;99.90;;;;;;5045399;28;20623;-39
2022/05/25 04:15:26;;;;;;;3.33;3.03;;;13.10;99.90;;;;;;5041072;28;20157;-37
2022/05/25 04:17:53;;;;;;;3.58;3.28;;;13.10;99.90;;;;;;5042697;28;20029;-39
2022/05/25 04:20:19;;;;;;;2.80;2.60;;;13.10;99.90;;;;;;5037815;28;20040;-39
2022/05/25 04:22:45;;;;;;;3.15;2.85;;;13.10;99.90;;;;;;5035251;28;20521;-38
2022/05/25 04:25:14;;;;;;;2.65;2.42;;;13.10;99.90;;;;;;5040660;28;20037;-39
2022/05/25 04:27:42;;;;;;;3.70;2.10;;;13.10;99.90;;;;;;5034269;28;20052;-39
2022/05/25 04:30:11;;;;;;;2.40;2.10;;;13.10;99.90;;;;;;5040701;28;20597;-36
2022/05/25 04:32:37;;;;;;;2.28;2.08;;;13.10;99.90;;;;;;5053051;28;20948;-38
2022/05/25 04:35:03;;;;;;;2.92;2.40;;;13.10;99.90;;;;;;5053695;28;20055;-38
2022/05/25 04:40:13;;;;;;;1.75;1.60;;;13.00;99.90;;;;;;5063350;28;20110;-38
2022/05/25 04:42:40;;;;;;;3.25;1.60;;;12.90;99.90;;;;;;5057102;28;20033;-38
2022/05/25 04:45:07;;;;;;;2.28;1.50;;;12.80;99.90;;;;;;5060871;28;20033;-37
2022/05/25 04:47:37;;;;;;;1.50;1.40;;;12.70;99.90;;;;;;5057515;28;20082;-38
2022/05/25 04:50:07;;;;;;;3.63;1.45;;;12.70;99.90;;;;;;5058277;28;20422;-39
2022/05/25 04:52:36;;;;;;;3.35;1.60;;;12.70;99.90;;;;;;5067696;28;20036;-39
2022/05/25 04:55:06;;;;;;;5.90;1.40;;;12.70;99.90;;;;;;5062316;28;20728;-39
2022/05/25 04:57:32;;;;;;;2.30;1.35;;;12.70;99.90;;;;;;5060386;28;20031;-37
2022/05/25 05:00:00;;;;;;;2.75;1.60;;;12.80;99.90;;;;;;5060502;28;20397;-37
2022/05/25 05:02:26;;;;;;;;;;;12.70;99.90;;;;;;5052976;27;20033;-39
2022/05/25 05:04:52;;;;;;;2.47;1.52;;;12.70;99.90;;;;;;5058662;28;19919;-38
2022/05/25 05:07:18;;;;;;;1.88;1.48;;;12.80;99.90;;;;;;5058658;28;20036;-39
2022/05/25 05:09:45;;;;;;;2.20;1.80;;;12.70;99.90;;;;;;5062681;28;20037;-36
2022/05/25 05:12:13;;;;;;;71.57;40.47;;;12.80;99.90;;;;;;5053263;28;20064;-37
2022/05/25 05:14:39;;;;;;;7.32;5.25;;;12.80;99.90;;;;;;5065084;28;20398;-38
2022/05/25 05:17:07;;;;;;;4.90;2.90;;;12.90;99.90;;;;;;5060036;28;20063;-35
2022/05/25 05:19:33;;;;;;;6.25;3.28;;;12.90;99.90;;;;;;5055699;28;20390;-39
2022/05/25 05:21:59;;;;;;;3.13;2.47;;;12.80;99.90;;;;;;5053342;28;20500;-38
2022/05/25 05:24:30;;;;;;;11.18;7.63;;;12.80;99.90;;;;;;5039381;28;20033;-38
2022/05/25 05:26:56;;;;;;;5.10;3.88;;;12.80;99.90;;;;;;5040035;28;20311;-39
2022/05/25 05:29:24;;;;;;;3.70;3.20;;;12.80;99.90;;;;;;5051393;28;20033;-38
2022/05/25 05:31:51;;;;;;;2.00;1.80;;;12.90;99.90;;;;;;5043892;28;20357;-39
2022/05/25 05:34:16;;;;;;;1.30;1.20;;;12.90;99.90;;;;;;5039106;28;20037;-39
2022/05/25 05:36:50;;;;;;;1.20;1.10;;;12.70;99.90;;;;;;5047637;28;20029;-40
2022/05/25 05:39:18;;;;;;;1.85;1.20;;;12.50;99.90;;;;;;5043094;28;20425;-38
2022/05/25 05:41:55;;;;;;;1.87;1.50;;;12.60;99.90;;;;;;5042110;28;20108;-39
2022/05/25 05:44:27;;;;;;;1.88;1.52;;;12.60;99.90;;;;;;5043373;28;20033;-38
2022/05/25 05:46:55;;;;;;;1.98;1.40;;;12.60;99.90;;;;;;5042164;28;20037;-37
2022/05/25 05:49:22;;;;;;;1.60;1.27;;;12.50;99.90;;;;;;5042657;28;20025;-40
2022/05/25 05:51:48;;;;;;;4.05;2.00;;;12.50;99.90;;;;;;5037307;28;20371;-37
2022/05/25 05:54:15;;;;;;;3.00;1.70;;;12.50;99.90;;;;;;5047298;28;20039;-39
2022/05/25 05:56:42;;;;;;;1.70;1.60;;;12.60;99.90;;;;;;5040820;28;20143;-39
2022/05/25 05:59:08;;;;;;;1.92;1.60;;;12.70;99.90;;;;;;5045358;28;20048;-39
2022/05/25 06:01:33;;;;;;;2.30;1.40;;;12.70;99.90;;;;;;5042166;28;20089;-40
2022/05/25 06:03:59;;;;;;;1.25;1.20;;;12.70;99.90;;;;;;5043329;28;20486;-35
2022/05/25 06:06:25;;;;;;;1.70;1.40;;;12.70;99.90;;;;;;5041644;28;20033;-37
2022/05/25 06:08:51;;;;;;;1.17;1.10;;;12.80;99.90;;;;;;5045918;28;20506;-39
2022/05/25 06:11:18;;;;;;;1.38;1.27;;;12.80;99.90;;;;;;5037211;28;20127;-37
2022/05/25 06:13:44;;;;;;;2.10;1.60;;;12.80;99.90;;;;;;5040877;28;20076;-38
2022/05/25 06:21:38;;;;;;;1.20;1.17;;;12.70;99.90;;;;;;5041238;28;20396;-39
2022/05/25 06:24:04;;;;;;;1.52;1.42;;;12.50;99.90;;;;;;5047793;28;20025;-36
2022/05/25 06:26:31;;;;;;;1.70;1.60;;;12.50;99.90;;;;;;5043268;28;20028;-37
2022/05/25 06:28:58;;;;;;;1.60;1.50;;;12.50;99.90;;;;;;5045294;28;20112;-39
2022/05/25 06:31:24;;;;;;;3.05;1.60;;;12.60;99.90;;;;;;5032697;28;20094;-39
2022/05/25 06:33:50;;;;;;;1.48;1.38;;;12.60;99.90;;;;;;5064504;28;20030;-39
2022/05/25 06:36:19;;;;;;;2.40;1.50;;;12.70;99.90;;;;;;5042788;28;20028;-39
2022/05/25 06:38:46;;;;;;;4.25;2.55;;;12.70;99.90;;;;;;5047768;28;20024;-36
2022/05/25 06:41:12;;;;;;;6.97;3.05;;;12.70;99.90;;;;;;5040552;28;20029;-38
2022/05/25 06:43:37;;;;;;;1.70;1.58;;;12.80;99.90;;;;;;5040483;28;20040;-39
2022/05/25 06:46:06;;;;;;;1.70;1.60;;;12.80;99.90;;;;;;5047124;28;20043;-39
2022/05/25 06:48:32;;;;;;;1.77;1.33;;;12.90;99.90;;;;;;5049030;28;20678;-39
2022/05/25 06:50:58;;;;;;;2.05;1.00;;;12.90;99.90;;;;;;5045870;28;20321;-37
2022/05/25 06:53:24;;;;;;;1.52;1.42;;;12.90;99.90;;;;;;5039245;28;20409;-39
2022/05/25 06:55:50;;;;;;;1.35;1.25;;;12.90;99.90;;;;;;5049833;28;20028;-36
2022/05/25 06:58:16;;;;;;;1.55;1.45;;;12.90;99.90;;;;;;5048009;28;20067;-36
2022/05/25 07:00:42;;;;;;;1.40;1.20;;;13.00;99.90;;;;;;5045716;28;20030;-37
2022/05/25 07:03:08;;;;;;;1.13;1.10;;;13.10;99.90;;;;;;5041084;28;20028;-39
2022/05/25 07:05:34;;;;;;;1.55;1.45;;;13.10;99.90;;;;;;5042999;28;20547;-37
2022/05/25 07:08:00;;;;;;;4.93;1.60;;;13.10;99.90;;;;;;5040208;28;20430;-39
2022/05/25 07:10:26;;;;;;;1.40;1.30;;;13.10;99.90;;;;;;5042996;28;20390;-38
2022/05/25 07:12:52;;;;;;;2.05;1.77;;;13.10;99.90;;;;;;5039169;28;20407;-38
2022/05/25 07:15:18;;;;;;;1.55;1.45;;;13.20;99.90;;;;;;5044456;28;20024;-37
2022/05/25 07:17:44;;;;;;;1.65;1.52;;;13.30;99.90;;;;;;5045499;28;20029;-38
2022/05/25 07:20:10;;;;;;;1.10;1.10;;;13.50;99.90;;;;;;5040859;28;20024;-36
2022/05/25 07:22:39;;;;;;;1.08;1.08;;;13.60;99.90;;;;;;5044406;28;20041;-38
2022/05/25 07:25:08;;;;;;;2.00;1.60;;;13.50;99.90;;;;;;5023672;28;20166;-35
2022/05/25 07:27:35;;;;;;;1.33;1.30;;;13.50;99.90;;;;;;4998987;28;20032;-35
2022/05/25 07:30:01;;;;;;;1.42;1.33;;;13.50;99.90;;;;;;5039835;28;20036;-39
2022/05/25 07:32:27;;;;;;;1.45;1.35;;;13.60;99.90;;;;;;5042808;27;20143;-39
2022/05/25 07:35:01;;;;;;;1.88;1.45;;;13.60;99.90;;;;;;5037452;28;20432;-39
2022/05/25 07:37:35;;;;;;;1.55;1.45;;;13.60;99.90;;;;;;5041246;28;20052;-39
2022/05/25 07:40:31;;;;;;;1.52;1.42;;;13.80;99.90;;;;;;5045249;28;20103;-38
2022/05/25 07:43:02;;;;;;;1.75;1.48;;;13.80;99.90;;;;;;5032806;28;20037;-37
2022/05/25 07:45:28;;;;;;;1.58;1.35;;;14.00;99.90;;;;;;5042659;28;20036;-39
2022/05/25 07:47:54;;;;;;;2.75;1.67;;;14.10;99.90;;;;;;5041701;28;20032;-37
2022/05/25 07:50:23;;;;;;;1.73;1.60;;;14.10;99.90;;;;;;5036703;28;20647;-37
2022/05/25 07:52:52;;;;;;;2.67;1.55;;;14.20;99.90;;;;;;5040625;28;20065;-39
2022/05/25 07:55:18;;;;;;;1.67;1.50;;;14.30;99.90;;;;;;5042918;28;20051;-37
2022/05/25 07:57:44;;;;;;;1.90;1.70;;;14.30;99.90;;;;;;5041911;28;20040;-37
2022/05/25 08:00:11;;;;;;;1.73;1.63;;;14.20;99.90;;;;;;5039756;28;20025;-38
2022/05/25 08:05:43;;;;;;;2.05;1.55;;;14.10;99.90;;;;;;5040001;28;20036;-38
2022/05/25 08:08:14;;;;;;;2.30;1.80;;;14.20;99.90;;;;;;5044168;28;20529;-37
2022/05/25 08:10:42;;;;;;;1.50;1.40;;;14.20;99.90;;;;;;5038622;28;20035;-38
2022/05/25 08:13:07;;;;;;;2.13;1.50;;;14.40;99.90;;;;;;5034232;28;20523;-36
2022/05/25 08:15:33;;;;;;;1.58;1.48;;;14.30;99.90;;;;;;5043568;28;20284;-39
2022/05/25 08:18:00;;;;;;;2.17;1.85;;;14.30;99.90;;;;;;5050697;28;20079;-39
2022/05/25 08:20:26;;;;;;;2.63;1.73;;;14.30;99.90;;;;;;5045013;28;20025;-38
2022/05/25 08:22:52;;;;;;;2.42;1.52;;;14.20;99.90;;;;;;5038962;28;20620;-38
2022/05/25 08:25:19;;;;;;;2.10;1.70;;;14.30;99.90;;;;;;5040061;28;20387;-38
2022/05/25 08:27:44;;;;;;;1.58;1.48;;;14.30;99.90;;;;;;5045461;28;20029;-36
2022/05/25 08:30:17;;;;;;;2.10;1.70;;;14.30;99.90;;;;;;5042785;28;20048;-35
2022/05/25 08:32:43;;;;;;;2.25;1.73;;;14.40;99.90;;;;;;5044492;28;20037;-36
2022/05/25 08:35:09;;;;;;;2.35;1.67;;;14.40;99.90;;;;;;5046247;28;20404;-36
2022/05/25 08:37:36;;;;;;;2.03;1.70;;;14.40;99.90;;;;;;5035538;28;20036;-37
2022/05/25 08:40:03;;;;;;;2.22;1.70;;;14.40;99.90;;;;;;5035329;28;20492;-35
2022/05/25 08:42:36;;;;;;;4.30;1.90;;;14.50;99.90;;;;;;5047470;28;20030;-39
2022/05/25 08:45:02;;;;;;;2.08;1.88;;;14.60;99.90;;;;;;5043521;28;20100;-38
2022/05/25 08:47:27;;;;;;;1.90;1.80;;;14.70;99.90;;;;;;5049090;28;20048;-38
2022/05/25 08:49:55;;;;;;;2.00;1.75;;;14.90;99.90;;;;;;5042781;28;20059;-39
2022/05/25 08:52:29;;;;;;;1.98;1.70;;;15.10;99.90;;;;;;5042665;28;20500;-39
2022/05/25 08:54:57;;;;;;;2.75;1.75;;;15.20;99.90;;;;;;5043702;28;20054;-38
2022/05/25 08:57:27;;;;;;;3.95;2.10;;;15.00;99.90;;;;;;5045180;28;20112;-38
2022/05/25 09:00:03;;;;;;;4.15;2.00;;;15.10;99.90;;;;;;5047875;28;20064;-39
2022/05/25 09:02:41;;;;;;;3.92;1.80;;;15.20;99.90;;;;;;5043067;28;20036;-39
2022/05/25 09:05:16;;;;;;;2.85;1.95;;;15.60;99.90;;;;;;5056126;28;20408;-37
2022/05/25 09:08:11;;;;;;;2.60;2.03;;;15.90;99.90;;;;;;5050974;28;20505;-35
2022/05/25 09:10:47;;;;;;;1.70;1.58;;;16.00;99.90;;;;;;5022103;28;20036;-36
2022/05/25 09:13:23;;;;;;;1.80;1.70;;;16.20;99.90;;;;;;5046215;28;20044;-38
2022/05/25 09:18:39;;;;;;;;;;;16.60;99.90;;;;;;5049862;28;20390;-38
2022/05/25 09:21:06;;;;;;;1.50;1.40;;;17.00;99.90;;;;;;5034282;28;19909;-39
2022/05/25 09:23:33;;;;;;;1.38;1.27;;;17.20;99.90;;;;;;5047029;28;20581;-39
2022/05/25 09:25:59;;;;;;;1.88;1.50;;;17.40;99.90;;;;;;5042263;28;20037;-39
2022/05/25 09:28:32;;;;;;;2.25;1.05;;;17.90;96.30;;;;;;5048368;28;20055;-35
2022/05/25 09:31:02;;;;;;;1.70;1.60;;;17.90;94.30;;;;;;5046149;28;20043;-39
2022/05/25 09:33:58;;;;;;;1.55;1.23;;;17.90;99.90;;;;;;5042807;28;20136;-37
2022/05/25 09:36:47;;;;;;;1.42;1.33;;;17.10;97.40;;;;;;5049432;28;20078;-39
2022/05/25 09:39:26;;;;;;;0.98;0.98;;;17.00;99.40;;;;;;5048395;28;20143;-37
2022/05/25 09:41:59;;;;;;;2.33;1.50;;;17.60;99.10;;;;;;5037826;28;20022;-37
2022/05/25 09:44:26;;;;;;;1.92;1.83;;;17.80;99.90;;;;;;5042213;28;20033;-37
2022/05/25 09:46:59;;;;;;;2.78;1.63;;;17.60;98.80;;;;;;5047612;28;20072;-39
2022/05/25 09:49:45;;;;;;;2.20;1.20;;;17.70;95.90;;;;;;5046312;28;20024;-39
2022/05/25 09:52:18;;;;;;;1.25;1.15;;;17.30;93.30;;;;;;5050498;28;20028;-36
2022/05/25 09:54:56;;;;;;;1.00;0.90;;;17.30;95.00;;;;;;5042702;28;20029;-39
2022/05/25 09:57:25;;;;;;;1.20;0.90;;;17.10;85.40;;;;;;5038286;28;20681;-39
2022/05/25 10:00:00;;;;;;;1.73;0.80;;;17.60;95.50;;;;;;5049928;28;20075;-38
2022/05/25 10:02:35;;;;;;;1.50;0.90;;;18.20;97.10;;;;;;5044808;28;20740;-39
2022/05/25 10:05:24;;;;;;;1.27;1.00;;;18.30;87.30;;;;;;5042783;28;20032;-36
2022/05/25 10:07:53;;;;;;;1.00;1.00;;;18.70;91.10;;;;;;5042770;28;20095;-39
2022/05/25 10:10:56;;;;;;;1.30;0.90;;;18.20;87.10;;;;;;5038756;28;20051;-39
2022/05/25 10:13:25;;;;;;;1.15;1.00;;;17.70;76.10;;;;;;5039590;28;20127;-37
2022/05/25 10:15:52;;;;;;;1.45;1.30;;;17.80;86.50;;;;;;5038417;28;20037;-38
2022/05/25 10:18:36;;;;;;;5.60;1.50;;;17.40;89.10;;;;;;5043217;28;20036;-39
2022/05/25 10:21:04;;;;;;;1.20;1.20;;;17.60;94.00;;;;;;5047961;28;20035;-39
2022/05/25 10:23:30;;;;;;;1.83;1.73;;;17.40;92.50;;;;;;5046187;28;20110;-38
2022/05/25 10:26:06;;;;;;;4.57;1.10;;;17.20;92.00;;;;;;5043383;28;20499;-39
2022/05/25 10:28:44;;;;;;;1.45;1.10;;;17.10;93.60;;;;;;5049686;28;20037;-37
2022/05/25 10:36:57;;;;;;;1.23;1.13;;;17.80;96.50;;;;;;5044332;28;20115;-38
2022/05/25 10:39:25;;;;;;;1.13;1.07;;;18.10;94.60;;;;;;5047287;28;20058;-39
2022/05/25 10:42:02;;;;;;;2.97;1.20;;;18.10;96.20;;;;;;5040232;28;20044;-39
2022/05/25 10:44:51;;;;;;;1.95;1.00;;;18.30;94.70;;;;;;5039910;28;20060;-39
2022/05/25 10:47:45;;;;;;;1.23;1.13;;;17.90;95.70;;;;;;5027541;28;20102;-40
2022/05/25 10:50:16;;;;;;;3.28;1.23;;;17.90;93.90;;;;;;5040906;28;20465;-38
2022/05/25 10:52:48;;;;;;;1.55;1.30;;;18.00;95.60;;;;;;5044732;28;20032;-39
2022/05/25 10:55:14;;;;;;;1.52;1.10;;;18.10;94.70;;;;;;5049191;28;20040;-37
2022/05/25 10:58:35;;;;;;;2.20;1.50;;;17.90;90.40;;;;;;5047232;28;20029;-36
2022/05/25 11:01:28;;;;;;;1.42;1.33;;;17.70;91.50;;;;;;5020309;28;20036;-39
2022/05/25 11:04:39;;;;;;;2.05;0.98;;;17.10;92.60;;;;;;5047682;28;20071;-38
2022/05/25 11:07:16;;;;;;;2.42;1.00;;;17.20;93.30;;;;;;5023398;28;20080;-40
2022/05/25 11:10:16;;;;;;;1.10;1.00;;;17.10;90.10;;;;;;5041542;28;20028;-38
2022/05/25 11:13:00;;;;;;;0.77;0.77;;;17.10;93.70;;;;;;5047144;28;20441;-37
2022/05/25 11:15:29;;;;;;;1.10;1.08;;;17.10;92.70;;;;;;5052046;28;20039;-39
2022/05/25 11:18:29;;;;;;;1.00;1.00;;;17.00;93.20;;;;;;5037526;28;20082;-37
2022/05/25 11:21:06;;;;;;;1.35;1.10;;;17.10;95.20;;;;;;5046982;28;20033;-38
2022/05/25 11:23:41;;;;;;;0.90;0.90;;;17.20;92.50;;;;;;5041448;28;20051;-39
2022/05/25 11:26:28;;;;;;;5.88;1.38;;;17.40;96.40;;;;;;5046085;28;20270;-37
2022/05/25 11:29:31;;;;;;;1.30;1.10;;;17.50;93.90;;;;;;5045779;28;20032;-38
2022/05/25 11:32:24;;;;;;;1.10;1.10;;;17.60;91.10;;;;;;5031148;28;20048;-38
2022/05/25 11:35:11;;;;;;;1.10;1.00;;;17.60;94.10;;;;;;5048942;28;20025;-39
2022/05/25 11:37:54;;;;;;;1.00;1.00;;;17.60;89.80;;;;;;5046264;28;20028;-37
2022/05/25 11:40:39;;;;;;;0.95;0.95;;;17.60;86.60;;;;;;5043052;28;20078;-38
2022/05/25 11:43:16;;;;;;;0.50;0.50;;;17.60;86.70;;;;;;5042104;28;20029;-37
2022/05/25 11:45:50;;;;;;;1.25;1.15;;;17.80;80.20;;;;;;5038367;28;20029;-38
2022/05/25 11:48:41;;;;;;;1.00;0.90;;;17.80;78.20;;;;;;5042374;28;20037;-37
2022/05/25 11:51:24;;;;;;;1.10;1.05;;;17.80;85.60;;;;;;5032271;28;20049;-38
2022/05/25 11:54:28;;;;;;;2.13;1.00;;;17.60;79.10;;;;;;5036985;28;20043;-40
2022/05/25 11:57:08;;;;;;;1.10;1.00;;;17.40;82.80;;;;;;5031602;28;20064;-39
2022/05/25 11:59:36;;;;;;;1.33;1.00;;;17.60;83.00;;;;;;5047609;28;20021;-37
2022/05/25 12:02:14;;;;;;;1.40;1.30;;;17.50;84.30;;;;;;5043316;28;20040;-37
2022/05/25 12:05:12;;;;;;;1.48;1.02;;;17.20;81.70;;;;;;5045992;28;20052;-36
2022/05/25 12:08:05;;;;;;;1.63;1.15;;;17.10;81.90;;;;;;5045693;28;20470;-38
2022/05/25 12:10:42;;;;;;;2.13;1.17;;;17.00;90.50;;;;;;5045560;28;20028;-39
2022/05/25 12:13:17;;;;;;;2.08;0.90;;;17.20;83.50;;;;;;5045307;28;20024;-40
2022/05/25 12:16:03;;;;;;;0.88;0.88;;;17.30;78.50;;;;;;5039449;28;20033;-38
2022/05/25 12:19:11;;;;;;;0.82;0.82;;;17.40;78.60;;;;;;5045259;28;20017;-39
2022/05/25 12:21:41;;;;;;;3.05;0.80;;;17.50;78.60;;;;;;5043691;28;20025;-36
2022/05/25 12:24:09;;;;;;;0.90;0.90;;;17.50;85.10;;;;;;5039603;28;20653;-39
2022/05/25 12:26:37;;;;;;;0.80;0.80;;;17.50;78.90;;;;;;5047415;28;20025;-38
2022/05/25 12:29:15;;;;;;;0.90;0.90;;;17.70;77.00;;;;;;5042281;28;20372;-37
2022/05/25 12:31:42;;;;;;;;;;;17.80;92.30;;;;;;5036336;28;20064;-38
2022/05/25 12:34:14;;;;;;;4.95;1.10;;;17.90;82.70;;;;;;5042829;28;19982;-39
2022/05/25 12:36:42;;;;;;;1.13;0.80;;;18.10;81.00;;;;;;5048718;28;20045;-39
2022/05/25 12:39:09;;;;;;;1.70;1.27;;;18.00;84.10;;;;;;5047184;28;20025;-39
2022/05/25 12:41:37;;;;;;;1.20;0.80;;;18.00;89.30;;;;;;5045935;28;20375;-39
2022/05/25 12:49:40;;;;;;;0.98;0.98;;;17.60;70.10;;;;;;5043942;28;20047;-39
2022/05/25 12:52:28;;;;;;;4.20;1.60;;;17.90;81.50;;;;;;5044457;28;20029;-38
2022/05/25 12:55:16;;;;;;;0.90;0.90;;;17.90;75.60;;;;;;5047965;28;20037;-36
2022/05/25 12:57:45;;;;;;;0.57;0.57;;;17.80;81.30;;;;;;5042575;28;20030;-39
2022/05/25 13:00:21;;;;;;;1.45;0.80;;;17.80;77.30;;;;;;5046009;28;20021;-37
2022/05/25 13:02:47;;;;;;;0.90;0.90;;;17.90;70.30;;;;;;5045795;28;20424;-38
2022/05/25 13:05:46;;;;;;;0.88;0.88;;;17.70;79.90;;;;;;5049646;28;20032;-38
2022/05/25 13:08:49;;;;;;;0.95;0.95;;;17.70;73.70;;;;;;5047133;28;20036;-40
2022/05/25 13:11:36;;;;;;;0.90;0.90;;;17.60;79.10;;;;;;5042684;28;20052;-39
2022/05/25 13:14:17;;;;;;;3.92;1.02;;;17.80;80.50;;;;;;5046580;28;20025;-38
2022/05/25 13:16:45;;;;;;;1.25;1.00;;;18.10;80.10;;;;;;5047947;28;20118;-39
2022/05/25 13:19:16;;;;;;;0.50;0.50;;;18.10;82.80;;;;;;5044459;28;20033;-38
2022/05/25 13:22:17;;;;;;;0.65;0.65;;;18.00;62.00;;;;;;5048306;28;20143;-36
2022/05/25 13:24:51;;;;;;;0.70;0.70;;;18.10;82.50;;;;;;5039768;28;20036;-39
2022/05/25 13:27:25;;;;;;;1.08;0.82;;;18.10;72.50;;;;;;5052506;28;20474;-38
2022/05/25 13:30:13;;;;;;;0.57;0.57;;;18.10;72.60;;;;;;5053744;28;20029;-36
2022/05/25 13:33:05;;;;;;;2.30;0.88;;;18.20;68.90;;;;;;5046827;28;20074;-36
2022/05/25 13:35:45;;;;;;;0.70;0.70;;;18.20;63.10;;;;;;5047225;28;20679;-37
2022/05/25 13:38:42;;;;;;;1.50;0.70;;;18.10;66.00;;;;;;5042992;28;20037;-39
2022/05/25 13:41:22;;;;;;;0.70;0.70;;;18.00;61.40;;;;;;5045057;28;20033;-39
2022/05/25 13:44:02;;;;;;;1.08;0.73;;;18.10;66.50;;;;;;5038766;28;20036;-40
2022/05/25 13:46:48;;;;;;;0.82;0.70;;;18.00;59.00;;;;;;5042781;28;20075;-39
2022/05/25 13:49:26;;;;;;;0.63;0.63;;;17.90;60.30;;;;;;5041092;28;20078;-38